地図

経路データ

SID SEASON NUMBER BASIN SUBBASIN NAME ISO_TIME NATURE LAT LON WMO_WIND WMO_PRES WMO_AGENCY TRACK_TYPE DIST2LAND LANDFALL IFLAG USA_AGENCY USA_ATCF_ID USA_LAT USA_LON USA_RECORD USA_STATUS USA_WIND USA_PRES USA_SSHS USA_R34_NE USA_R34_SE USA_R34_SW USA_R34_NW USA_R50_NE USA_R50_SE USA_R50_SW USA_R50_NW USA_R64_NE USA_R64_SE USA_R64_SW USA_R64_NW USA_POCI USA_ROCI USA_RMW USA_EYE TOKYO_LAT TOKYO_LON TOKYO_GRADE TOKYO_WIND TOKYO_PRES TOKYO_R50_DIR TOKYO_R50_LONG TOKYO_R50_SHORT TOKYO_R30_DIR TOKYO_R30_LONG TOKYO_R30_SHORT TOKYO_LAND CMA_LAT CMA_LON CMA_CAT CMA_WIND CMA_PRES HKO_LAT HKO_LON HKO_CAT HKO_WIND HKO_PRES NEWDELHI_LAT NEWDELHI_LON NEWDELHI_GRADE NEWDELHI_WIND NEWDELHI_PRES NEWDELHI_CI NEWDELHI_DP NEWDELHI_POCI REUNION_LAT REUNION_LON REUNION_TYPE REUNION_WIND REUNION_PRES REUNION_TNUM REUNION_CI REUNION_RMW REUNION_R34_NE REUNION_R34_SE REUNION_R34_SW REUNION_R34_NW REUNION_R50_NE REUNION_R50_SE REUNION_R50_SW REUNION_R50_NW REUNION_R64_NE REUNION_R64_SE REUNION_R64_SW REUNION_R64_NW BOM_LAT BOM_LON BOM_TYPE BOM_WIND BOM_PRES BOM_TNUM BOM_CI BOM_RMW BOM_R34_NE BOM_R34_SE BOM_R34_SW BOM_R34_NW BOM_R50_NE BOM_R50_SE BOM_R50_SW BOM_R50_NW BOM_R64_NE BOM_R64_SE BOM_R64_SW BOM_R64_NW BOM_ROCI BOM_POCI BOM_EYE BOM_POS_METHOD BOM_PRES_METHOD NADI_LAT NADI_LON NADI_CAT NADI_WIND NADI_PRES WELLINGTON_LAT WELLINGTON_LON WELLINGTON_WIND WELLINGTON_PRES DS824_LAT DS824_LON DS824_STAGE DS824_WIND DS824_PRES TD9636_LAT TD9636_LON TD9636_STAGE TD9636_WIND TD9636_PRES TD9635_LAT TD9635_LON TD9635_WIND TD9635_PRES TD9635_ROCI NEUMANN_LAT NEUMANN_LON NEUMANN_CLASS NEUMANN_WIND NEUMANN_PRES MLC_LAT MLC_LON MLC_CLASS MLC_WIND MLC_PRES USA_GUST BOM_GUST BOM_GUST_PER REUNION_GUST REUNION_GUST_PER USA_SEAHGT USA_SEARAD_NE USA_SEARAD_SE USA_SEARAD_SW USA_SEARAD_NW STORM_SPEED STORM_DIR
1863039S13061 1863 6 SI MM NOT_NAMED 1863-02-07 18:00:00 NR -13.0000 60.6000 main 852 834 __________O___ -1 -13.0000 60.6000 7 6 238
1863039S13061 1863 6 SI MM NOT_NAMED 1863-02-07 21:00:00 NR -13.1487 60.3612 main 834 802 __________P___ -1 -13.1487 60.3612 7 5 237
1863039S13061 1863 6 SI MM NOT_NAMED 1863-02-08 00:00:00 NR -13.2977 60.1278 main 802 785 __________P___ -1 -13.2977 60.1278 7 5 236
1863039S13061 1863 6 SI MM NOT_NAMED 1863-02-08 03:00:00 NR -13.4480 59.9055 main 785 757 __________P___ -1 -13.4480 59.9055 7 5 234
1863039S13061 1863 6 SI MM NOT_NAMED 1863-02-08 06:00:00 NR -13.6000 59.7000 main 757 741 __________O___ -1 -13.6000 59.7000 7 5 231
1863039S13061 1863 6 SI MM NOT_NAMED 1863-02-08 09:00:00 NR -13.7539 59.5146 main 730 716 __________P___ -1 -13.7539 59.5146 7 5 228
1863039S13061 1863 6 SI MM NOT_NAMED 1863-02-08 12:00:00 NR -13.9073 59.3424 main 714 700 __________P___ -1 -13.9073 59.3424 7 5 228
1863039S13061 1863 6 SI MM NOT_NAMED 1863-02-08 15:00:00 NR -14.0571 59.1740 main 690 674 __________P___ -1 -14.0571 59.1740 7 4 229
1863039S13061 1863 6 SI MM NOT_NAMED 1863-02-08 18:00:00 NR -14.2000 59.0000 main 674 659 __________O___ -1 -14.2000 59.0000 7 5 233
1863039S13061 1863 6 SI MM NOT_NAMED 1863-02-08 21:00:00 NR -14.3322 58.8031 main 659 633 __________P___ -1 -14.3322 58.8031 7 5 236
1863039S13061 1863 6 SI MM NOT_NAMED 1863-02-09 00:00:00 NR -14.4575 58.5999 main 633 619 __________P___ -1 -14.4575 58.5999 7 5 238
1863039S13061 1863 6 SI MM NOT_NAMED 1863-02-09 03:00:00 NR -14.5791 58.3968 main 619 606 __________P___ -1 -14.5791 58.3968 7 5 238
1863039S13061 1863 6 SI MM NOT_NAMED 1863-02-09 06:00:00 NR -14.7000 58.2000 main 606 593 __________O___ -1 -14.7000 58.2000 7 4 237
1863039S13061 1863 6 SI MM NOT_NAMED 1863-02-09 09:00:00 NR -14.8168 58.0217 main 593 582 __________P___ -1 -14.8168 58.0217 7 4 235
1863039S13061 1863 6 SI MM NOT_NAMED 1863-02-09 12:00:00 NR -14.9349 57.8498 main 581 559 __________P___ -1 -14.9349 57.8498 7 4 234
1863039S13061 1863 6 SI MM NOT_NAMED 1863-02-09 15:00:00 NR -15.0605 57.6780 main 559 548 __________P___ -1 -15.0605 57.6780 7 4 232
1863039S13061 1863 6 SI MM NOT_NAMED 1863-02-09 18:00:00 NR -15.2000 57.5000 main 548 526 __________O___ -1 -15.2000 57.5000 7 5 230
1863039S13061 1863 6 SI MM NOT_NAMED 1863-02-09 21:00:00 NR -15.3647 57.2991 main 526 515 __________P___ -1 -15.3647 57.2991 7 5 229
1863039S13061 1863 6 SI MM NOT_NAMED 1863-02-10 00:00:00 NR -15.5425 57.0926 main 516 495 __________P___ -1 -15.5425 57.0926 7 5 228
1863039S13061 1863 6 SI MM NOT_NAMED 1863-02-10 03:00:00 NR -15.7241 56.8897 main 496 477 __________P___ -1 -15.7241 56.8897 7 5 227
1863039S13061 1863 6 SI MM NOT_NAMED 1863-02-10 06:00:00 NR -15.9000 56.7000 main 477 468 __________O___ -1 -15.9000 56.7000 7 5 226
1863039S13061 1863 6 SI MM NOT_NAMED 1863-02-10 09:00:00 NR -16.0530 56.5395 main 459 451 __________P___ -1 -16.0530 56.5395 7 4 225
1863039S13061 1863 6 SI MM NOT_NAMED 1863-02-10 12:00:00 NR -16.1999 56.3922 main 451 443 __________P___ -1 -16.1999 56.3922 7 4 224
1863039S13061 1863 6 SI MM NOT_NAMED 1863-02-10 15:00:00 NR -16.3468 56.2489 main 446 429 __________P___ -1 -16.3468 56.2489 7 4 223
1863039S13061 1863 6 SI MM NOT_NAMED 1863-02-10 18:00:00 NR -16.5000 56.1000 main 429 416 __________O___ -1 -16.5000 56.1000 7 4 223
1863039S13061 1863 6 SI MM NOT_NAMED 1863-02-10 21:00:00 NR -16.6642 55.9384 main 416 410 __________P___ -1 -16.6642 55.9384 7 5 224
1863039S13061 1863 6 SI MM NOT_NAMED 1863-02-11 00:00:00 NR -16.8377 55.7654 main 410 400 __________P___ -1 -16.8377 55.7654 7 5 224
1863039S13061 1863 6 SI MM NOT_NAMED 1863-02-11 03:00:00 NR -17.0174 55.5847 main 400 392 __________P___ -1 -17.0174 55.5847 7 5 224
1863039S13061 1863 6 SI MM NOT_NAMED 1863-02-11 06:00:00 NR -17.2000 55.4000 main 392 __________O___ -1 -17.2000 55.4000 7 5 224

IBTrACS Databaseについて

本データベースは、米国NOAAが公開する1842年以降の世界の熱帯低気圧のベストトラックデータアーカイブInternational Best Track Archive for Climate Stewardship (IBTrACS)を、ウェブで閲覧しやすい形式に変換したものです。

最終更新日:2021-12-03